Saint-Nazaire-Montoir Airport

Airport
ICAO code: 
LFRZ
IATA Code: 
SNR
Summary
ICAO Region: 
EUR
Territory: 
Location: 
, Pays de la Loire
Serving: 
St.-nazaire
Elevation: 
13 ft
Coordinates: 
Aerial View: 
47° 18' 43.88" N, 2° 8' 57.052" W
Metar
Observation
LFRZ 060500Z AUTO 22001KT CAVOK 03/01 Q1018 TEMPO 30010KT
Station
St-Nazaire
Date/Time
2021-12-06 05:00:00
Wind direction
220°
Wind speed
01 kts
Lowest cloud amount
clouds and visibility OK
Temperature
3°C
Dew point
1°C
Humidity
86%
QNH
1018 hPa
Weather condition
n/a

Runways

Designator Length Width Surface Rops
8/26 2400 45 ASP No/No
Airport map: 
Aerial View: 

SKYbrary Partners:

Safety knowledge contributed by: